Historyczne dane pomiarowe

Dodano dane terminowe – wersja testowa.

Dane z okresu 1951-2019

Wersja bazy: 1.34 [2019-03-16, lista zmian], aktualizacja planowana na 2019-04-15

Dane meteo z obszaru Polski uzyskane na podstawie danych udostępnionych przez Instytut Meteorologii i Gospodarki Wodnej – Państwowy Instytut Badawczy.

 

Wybierz Datę:    

       

TemperaturaWilgotnośćWiatrCiśnienieOpadyŚniegCzas trwania zjawisk
 Stacja t tx tn tng RH VA  wxwx mslp ppp RRR   cm mm wxwxwxwxwxwxwx
1983-08-14 12.3 16.2 7.9- 93.3- 5.0 0.0---- 4.6------------
1983-08-13 14.0 21.1 11.8- 93.5- 6.3 2.7---- 6.1------------
1983-08-12 18.0 25.2 11.6- 80.0- 5.3 1.7---- 6.8------------
1983-08-11 16.3 23.9 10.7- 93.8- 4.7 1.0---- 3.1------------
1983-08-10 17.7 23.9 12.5- 82.0- 4.3 1.0---- 0.0------------
1983-08-09 17.0 24.3 12.4- 91.3- 5.0 0.0---- 1.2------------
1983-08-08 16.9 21.1 13.0- 89.3- 7.0 0.0---- 9.7------------
1983-08-07 13.9 17.1 11.5- 97.5- 8.0 0.0---- 0.5------------
1983-08-06 13.4 17.4 8.7- 90.3- 7.3 0.0---- 0.0------------
1983-08-05 11.8 16.4 6.9- 86.8- 5.3 1.0---- 0.0------------
1983-08-04 11.0 18.4 10.0- 89.5- 8.0 2.0---- 1.2------------
1983-08-03 19.1 24.6 16.3- 76.0- 5.7 2.7---- 2.5------------
1983-08-02 21.0 25.9 12.5- 83.5- 6.0 1.7---- 11.2------------
1983-08-01 19.8 30.4 8.3- 66.3- 0.0 1.7---- 0.0------------
1983-07-31 16.7 23.9 8.0- 69.8- 0.0 2.0---- 0.0------------
1983-07-30 16.7 22.0 11.1- 78.8- 5.7 2.7---- 0.4------------
1983-07-29 17.6 23.4 11.2- 72.5- 5.3 2.0---- 8.9------------
1983-07-28 21.1 27.1 15.3- 71.5- 6.0 1.7---- 0.0------------
1983-07-27 20.4 31.6 9.6- 82.3- 1.7 0.0---- 0.0------------
1983-07-26 19.0 26.1 10.2- 70.8- 3.0 0.0---- 0.0------------
1983-07-25 16.1 20.5 10.4- 74.3- 3.7 1.0---- 0.0------------
1983-07-24 15.8 22.6 7.8- 82.3- 3.3 0.0---- 0.5------------
1983-07-23 16.4 21.5 12.0- 77.3- 5.7 1.7---- 0.0------------
1983-07-22 11.2 14.5 6.4- 88.8- 7.3 1.7---- 1.5------------
1983-07-21 11.8 16.3 8.0- 70.0- 5.3 4.3---- 0.0------------
1983-07-20 16.0 25.2 11.8- 88.8- 7.0 1.7---- 1.7------------
1983-07-19 21.8 28.1 12.9- 72.8- 2.0 1.0---- 0.9------------
1983-07-18 21.2 30.5 11.2- 73.8- 1.0 1.0---- 0.4------------
1983-07-17 19.7 26.1 11.8- 75.8- 3.0 1.0---- 0.0------------
1983-07-16 18.8 27.2 10.4- 70.0- 2.7 1.0---- 0.0------------
1983-07-15 18.3 24.0 12.1- 77.3- 3.7 1.7---- 0.0------------
1983-07-14 16.1 22.9 13.6- 94.0- 8.0 1.0---- 51.3------------
1983-07-13 18.8 24.5 13.4- 77.3- 5.7 3.7---- 5.5------------
1983-07-12 17.0 22.1 12.9- 88.3- 6.3 1.7---- 8.8------------
1983-07-11 17.8 25.4 11.7- 77.8- 5.3 2.7---- 5.1------------
1983-07-10 19.4 27.3 10.5- 71.3- 2.3 1.7---- 0.0------------
1983-07-09 17.8 26.1 6.9- 72.0- 3.0 1.0---- 0.0------------
1983-07-08 18.7 25.6 9.0- 65.3- 0.0 0.7---- 0.0------------
1983-07-07 19.8 27.1 11.1- 68.5- 0.3 1.0---- 0.0------------
1983-07-06 19.6 27.2 10.1- 72.3- 1.7 1.0---- 0.0------------
1983-07-05 18.0 25.3 8.5- 71.0- 1.7 0.0---- 0.0------------
1983-07-04 17.1 24.8 8.2- 75.3- 1.7 1.0---- 0.0------------
1983-07-03 16.6 23.1 10.2- 77.8- 3.3 0.0---- 0.0------------
1983-07-02 16.3 22.1 10.5- 85.0- 7.0 2.0---- 0.0------------
1983-07-01 17.4 24.7 8.0- 70.8- 3.3 0.0---- 0.0------------
1983-06-30 14.5 22.1 4.1- 72.8- 4.3 1.0---- 0.0------------
1983-06-29 13.4 17.9 6.9- 69.5- 3.0 2.0---- 0.0------------
1983-06-28 14.9 17.2 12.5- 89.8- 7.3 1.0---- 5.6------------
1983-06-27 17.9 26.0 10.7- 81.8- 5.3 2.3---- 20.7------------
1983-06-26 19.2 24.0 13.7- 77.0- 5.3 1.0---- 0.0------------
1983-06-25 17.9 25.9 8.0- 69.0- 0.0 1.7---- 0.3------------
1983-06-24 15.9 24.6 5.0- 68.8- 1.0 0.0---- 0.0------------
1983-06-23 13.2 20.8 3.3- 66.3- 0.0 1.0---- 0.0------------
1983-06-22 15.1 21.2 8.9- 64.0- 1.7 2.0---- 0.0------------
1983-06-21 17.8 24.0 12.4- 73.5- 4.7 1.0---- 0.0------------
1983-06-20 16.1 18.0 14.4- 95.5- 7.3 0.0---- 5.2------------
1983-06-19 13.0 15.6 10.7- 95.8- 8.0 0.0---- 47.9------------
1983-06-18 10.7 13.5 8.4- 93.0- 8.0 1.0---- 21.5------------
1983-06-17 10.7 12.8 8.9- 84.5- 8.0 1.0---- 11.4------------
1983-06-16 9.8 12.3 7.6- 93.5- 8.0 1.0---- 5.1------------
234.5 ms

 

Źródłem pochodzenia danych jest Instytut Meteorologii i Gospodarki Wodnej – Państwowy Instytut Badawczy. Dane Instytutu Meteorologii i Gospodarki Wodnej – Państwowego Instytutu Badawczego zostały przetworzone.

Dane źródłowe można odnaleźć na stronie https://dane.imgw.pl